Latest Coastal Weather Observations for Brisbane Airport

IDQ60701

Issued at 6:45 am EST Saturday 1 November 2014 (issued every 10 minutes, with the page automatically refreshed every 10 minutes)

About coastal observations | Map of coastal stations | Coastal observations for QLD | Marine services | Other Formats
Station Details ID: 040842 Name: BRISBANE AERO Lat: -27.39 Lon: 153.13 Height: 4.51 m
Data from the previous 72 hours. | See also: Recent months at Brisbane Airport
Date/Time
EST
Temp

°C
Wind Pressure Rain
since 9am
mm
Weather Cloud Vis
km
Sea
Height
m
Swell
Dir
 
Speed
knots
Gust
knots
hPa Trend Height
m
Period
s
Dir
01/06:30am 22.6 NNW 11 15 1015.4 - 0.0 - Mostly clear 10 - - - -
01/06:00am 22.6 N 12 16 1015.3 R 0.0 Haze Partly cloudy 20 - - - -
01/05:30am 22.0 N 13 15 1014.9 - 0.0 - Mostly clear 10 - - - -
01/05:00am 21.7 N 12 17 1014.7 - 0.0 - Mostly clear 10 - - - -
01/04:30am 21.4 N 11 14 1014.3 - 0.0 - - 10 - - - -
01/04:00am 21.8 N 11 14 1014.3 - 0.0 - - 10 - - - -
01/03:30am 22.1 N 14 17 1014.0 - 0.0 - Mostly clear 10 - - - -
01/03:00am 22.1 N 11 16 1013.7 F 0.0 Haze Mostly cloudy 18 - - - -
01/02:30am 22.6 N 11 15 1014.2 - 0.0 - Mostly clear 10 - - - -
01/02:00am 22.3 N 12 15 1014.1 - 0.0 - Mostly clear 10 - - - -
01/01:30am 22.4 N 13 17 1014.3 - 0.0 - Mostly clear 10 - - - -
01/01:00am 22.6 N 14 18 1014.2 - 0.0 - Mostly clear 10 - - - -
01/12:30am 22.8 N 16 20 1014.2 - 0.0 - Mostly clear 10 - - - -
01/12:00am 23.3 N 16 20 1014.7 F 0.0 Haze Mostly cloudy 18 - - - -
 
Date/Time
EST
Temp

°C
Wind Pressure Rain
since 9am
mm
Weather Cloud Vis
km
Sea
Height
m
Swell
Dir
 
Speed
knots
Gust
knots
hPa Trend Height
m
Period
s
Dir
31/11:30pm 23.5 N 16 20 1015.1 - 0.0 - Partly cloudy 10 - - - -
31/11:00pm 23.3 N 17 22 1015.3 - 0.0 - Partly cloudy 10 - - - -
31/10:30pm 23.3 N 17 21 1015.6 - 0.0 - Partly cloudy 10 - - - -
31/10:00pm 23.2 N 18 21 1015.5 - 0.0 - Partly cloudy 10 - - - -
31/09:30pm 23.3 N 18 23 1015.5 - 0.0 - Partly cloudy 10 - - - -
31/09:00pm 23.4 N 19 22 1015.5 F 0.0 Haze Partly cloudy 18 - - - -
31/08:48pm 23.6 N 19 32 1015.4 - 0.0 - Mostly clear 10 - - - -
31/08:30pm 23.5 N 18 22 1015.3 - 0.0 - Mostly clear 10 - - - -
31/08:00pm 23.5 N 19 26 1014.8 - 0.0 - Mostly clear 10 - - - -
31/07:30pm 23.8 N 18 23 1014.6 - 0.0 - - 10 - - - -
31/07:00pm 23.6 N 18 21 1014.4 - 0.0 - - 10 - - - -
31/06:30pm 23.6 N 18 25 1014.2 - 0.0 - Mostly clear 10 - - - -
31/06:00pm 23.7 N 18 22 1013.8 F 0.0 Haze Partly cloudy 18 - - - -
31/05:30pm 24.2 N 19 23 1013.5 - 0.0 - Mostly clear 10 - - - -
31/05:00pm 24.8 N 18 22 1013.3 - 0.0 - Mostly clear 10 - - - -
31/04:30pm 24.9 N 18 24 1013.1 - 0.0 - Mostly clear 10 - - - -
31/04:00pm 25.6 N 18 24 1013.1 - 0.0 - Mostly clear 10 - - - -
31/03:30pm 25.8 N 19 24 1013.1 - 0.0 - Mostly clear 10 - - - -
31/03:00pm 26.4 N 19 24 1013.2 F 0.0 Haze Mostly clear 18 - - - -
31/02:30pm 27.0 N 18 24 1013.4 - 0.0 - Mostly clear 10 - - - -
31/02:00pm 27.9 NNE 19 22 1013.5 - 0.0 - Mostly clear 10 - - - -
31/01:30pm 27.0 NNE 17 21 1013.8 - 0.0 - Mostly clear 10 - - - -
31/01:00pm 28.2 NNE 16 19 1014.4 - 0.0 - Mostly clear 10 - - - -
31/12:30pm 27.4 NNE 17 20 1014.9 - 0.0 - Mostly clear 10 - - - -
31/12:00pm 27.1 NNE 15 18 1015.2 F 0.0 Haze Mostly clear 18 - - - -
31/11:30am 27.3 NNE 14 17 1015.6 - 0.0 - Mostly clear 10 - - - -
31/11:00am 27.1 NNE 13 17 1015.8 - 0.0 - Mostly clear 10 - - - -
31/10:30am 26.5 NE 12 16 1016.3 - 0.0 - Mostly clear 10 - - - -
31/10:00am 25.9 NNE 9 15 1016.6 - 0.0 - Partly cloudy 10 - - - -
31/09:30am 26.9 NNE 11 14 1016.7 - 0.0 - Mostly clear 10 - - - -
31/09:00am 26.0 NNE 9 13 1017.0 F 0.0 Haze Partly cloudy 18 - - - -
31/08:30am 25.4 N 9 11 1017.1 - 0.0 - Mostly clear 10 - - - -
31/08:00am 24.6 N 9 14 1017.1 - 0.0 - Mostly clear 10 - - - -
31/07:30am 24.7 N 7 8 1017.0 - 0.0 - Mostly clear 10 - - - -
31/07:00am 24.3 N 7 9 1016.8 - 0.0 - Mostly clear 10 - - - -
31/06:30am 24.0 N 7 8 1016.7 - 0.0 - Mostly clear 10 - - - -
31/06:00am 23.7 N 5 7 1016.6 R 0.0 Haze Mostly cloudy 16 - - - -
31/05:30am 23.3 N 7 8 1016.1 - 0.0 - Mostly clear 10 - - - -
31/05:00am 23.2 N 6 8 1015.6 - 0.0 - Mostly clear 10 - - - -
31/04:30am 23.1 N 7 9 1015.4 - 0.0 - Mostly clear 10 - - - -
31/04:00am 23.2 N 4 5 1015.1 - 0.0 - Mostly clear 10 - - - -
31/03:30am 23.0 N 6 7 1015.0 - 0.0 - Mostly clear 10 - - - -
31/03:00am 23.0 NW 2 5 1014.7 F 0.0 Haze Mostly cloudy 14 - - - -
31/02:30am 22.9 NW 4 9 1014.7 - 0.0 - Mostly clear 10 - - - -
31/02:00am 23.0 NNW 6 7 1014.9 - 0.0 - Mostly clear 10 - - - -
31/01:30am 22.9 N 8 11 1015.1 - 0.0 - Mostly clear 10 - - - -
31/01:00am 22.8 N 6 8 1015.1 - 0.0 - Mostly clear 10 - - - -
31/12:30am 22.4 N 5 7 1015.5 - 0.0 - Mostly clear 10 - - - -
31/12:00am 21.3 N 7 11 1015.7 F 0.0 Haze Mostly cloudy 18 - - - -
 
Date/Time
EST
Temp

°C
Wind Pressure Rain
since 9am
mm
Weather Cloud Vis
km
Sea
Height
m
Swell
Dir
 
Speed
knots
Gust
knots
hPa Trend Height
m
Period
s
Dir
30/11:30pm 21.8 N 7 9 1015.9 - 0.0 - Mostly clear 10 - - - -
30/11:00pm 22.6 N 8 10 1016.3 - 0.0 - Mostly clear 10 - - - -
30/10:30pm 22.5 N 10 13 1016.5 - 0.0 - Mostly clear 10 - - - -
30/10:00pm 22.6 N 9 11 1016.6 - 0.0 - Mostly clear 10 - - - -
30/09:30pm 22.8 N 10 14 1016.3 - 0.0 - Mostly clear 10 - - - -
30/09:00pm 22.4 NNE 11 14 1016.2 F 0.0 Haze Partly cloudy 16 - - - -
30/08:30pm 22.2 NNE 9 13 1015.9 - 0.0 - Mostly clear 10 - - - -
30/08:00pm 22.4 NNE 10 14 1015.7 - 0.0 - Mostly clear 10 - - - -
30/07:30pm 22.5 NNE 9 12 1015.4 - 0.0 - Mostly clear 10 - - - -
30/07:00pm 22.5 NE 9 14 1014.9 - 0.0 - Mostly clear 10 - - - -
30/06:30pm 22.9 NE 9 13 1014.7 - 0.0 - Mostly clear 10 - - - -
30/06:00pm 23.1 NE 11 14 1014.5 S 0.0 Fine Partly cloudy 25 - - - -
30/05:30pm 23.6 NE 11 14 1014.1 - 0.0 - Mostly clear 10 - - - -
30/05:00pm 24.6 NE 12 16 1014.0 - 0.0 - Mostly clear 10 - - - -
30/04:30pm 24.9 NE 14 17 1013.7 - 0.0 - Mostly clear 10 - - - -
30/04:00pm 24.7 NE 14 17 1013.4 - 0.0 - Mostly clear 10 - - - -
30/03:30pm 25.1 ENE 11 15 1013.5 - 0.0 - Mostly clear 10 - - - -
30/03:00pm 26.0 NE 12 17 1013.5 F 0.0 Haze Partly cloudy 23 - - - -
30/02:30pm 26.3 NE 13 17 1013.7 - 0.0 - Mostly clear 10 - - - -
30/02:00pm 26.2 NE 12 15 1013.9 - 0.0 - Mostly clear 10 - - - -
30/01:30pm 26.6 NE 12 16 1014.2 - 0.0 - Mostly clear 10 - - - -
30/01:00pm 26.8 NE 10 15 1014.8 - 0.0 - Mostly clear 10 - - - -
30/12:30pm 26.7 NE 10 14 1015.4 - 0.0 - Mostly clear 10 - - - -
30/12:00pm 26.6 NNE 10 14 1015.7 F 0.0 Haze Partly cloudy 25 - - - -
30/11:30am 26.2 NNE 11 15 1016.2 - 0.0 - Mostly clear 10 - - - -
30/11:00am 26.5 E 7 13 1016.5 - 0.0 - Mostly clear 10 - - - -
30/10:30am 25.7 NE 7 13 1016.9 - 0.0 - Mostly clear 10 - - - -
30/10:00am 25.3 ESE 7 9 1017.3 - 0.0 - Mostly clear 10 - - - -
30/09:30am 24.8 E 7 12 1017.5 - 0.0 - Mostly clear 10 - - - -
30/09:00am 24.5 ESE 7 10 1017.8 F 0.0 Haze Mostly clear 25 - - - -
30/08:30am 24.3 E 7 10 1018.1 - 0.0 - Mostly clear 10 - - - -
30/08:00am 23.8 SE 6 9 1018.2 - 0.0 - Mostly clear 10 - - - -
30/07:30am 23.0 S 5 8 1018.2 - 0.0 - Mostly clear 10 - - - -
30/07:00am 21.6 S 6 9 1017.9 - 0.0 - Mostly clear 10 - - - -
30/06:30am 20.3 SSW 6 7 1017.6 - 0.0 - Mostly clear 10 - - - -
30/06:00am 18.9 SSW 6 8 1017.4 R 0.0 Haze Clear 18 - - - -
30/05:30am 17.5 SSW 5 6 1016.9 - 0.0 - - 10 - - - -
30/05:00am 18.0 SSW 5 6 1016.5 - 0.0 - - 10 - - - -
30/04:30am 17.9 S 5 6 1016.2 - 0.0 - - 10 - - - -
30/04:00am 17.9 SSW 5 6 1016.1 - 0.0 - - 10 - - - -
30/03:30am 19.1 S 4 6 1016.0 - 0.0 - - 10 - - - -
30/03:00am 19.1 S 5 8 1016.1 R 0.0 Fine Clear 25 - - - -
30/02:30am 19.3 SSE 6 9 1016.0 - 0.0 - - 10 - - - -
30/02:00am 19.5 S 6 9 1016.1 - 0.0 - - 10 - - - -
30/01:30am 19.8 S 5 7 1016.3 - 0.0 - - 10 - - - -
30/01:00am 20.1 S 4 6 1016.3 - 0.0 - - 10 - - - -
30/12:30am 20.6 S 4 6 1016.5 - 0.0 - Mostly clear 10 - - - -
30/12:00am 20.8 S 4 6 1016.9 S 0.0 Fine Mostly clear 25 - - - -
 
Date/Time
EST
Temp

°C
Wind Pressure Rain
since 9am
mm
Weather Cloud Vis
km
Sea
Height
m
Swell
Dir
 
Speed
knots
Gust
knots
hPa Trend Height
m
Period
s
Dir
29/11:30pm 20.8 SE 1 5 1017.2 - 0.0 - Mostly clear 10 - - - -
29/11:00pm 21.3 ESE 7 10 1017.3 - 0.0 - Mostly clear 10 - - - -
29/10:30pm 22.2 ESE 6 9 1017.5 - 0.0 - Mostly clear 10 - - - -
29/10:00pm 22.2 ESE 6 11 1017.4 - 0.0 - Mostly clear 10 - - - -
29/09:30pm 22.3 E 7 10 1017.3 - 0.0 - Mostly clear 10 - - - -
29/09:00pm 22.4 ESE 7 12 1017.3 R 0.0 Fine Mostly clear 20 - - - -
29/08:30pm 22.4 E 7 11 1017.2 - 0.0 - Mostly clear 10 - - - -
29/08:00pm 22.7 ESE 8 15 1016.8 - 0.0 - Mostly clear 10 - - - -
29/07:30pm 22.9 ESE 9 14 1016.5 - 0.0 - Mostly clear 10 - - - -
29/07:00pm 23.0 ESE 10 19 1015.9 - 0.0 - Mostly clear 10 - - - -
29/06:30pm 23.1 ESE 9 17 1015.5 - 0.0 - Mostly clear 10 - - - -
29/06:00pm 23.3 ESE 10 18 1015.0 R 0.0 Haze Mostly clear 15 - - - -
29/05:30pm 23.7 ESE 12 19 1014.7 - 0.0 - Mostly clear 10 - - - -
29/05:00pm 24.2 ESE 11 20 1014.4 - 0.0 - Mostly clear 10 - - - -
29/04:30pm 24.5 ESE 14 22 1013.9 - 0.0 - Mostly clear 10 - - - -
29/04:00pm 24.7 ESE 15 25 1013.5 - 0.0 - Mostly clear 10 - - - -
29/03:30pm 25.5 ESE 15 23 1013.3 - 0.0 - Mostly clear 10 - - - -
29/03:17pm 25.5 ESE 15 25 1013.3 - 0.0 - - 10 - - - -
29/03:00pm 25.2 ESE 15 24 1013.3 R 0.0 Haze Clear 14 - - - -
29/02:30pm 25.7 ESE 15 23 1013.4 - 0.0 - Mostly clear 10 - - - -
29/02:04pm 25.9 ESE 15 27 1013.6 - 0.0 - Mostly clear 10 - - - -
29/02:00pm 26.0 ESE 14 22 1013.6 - 0.0 - Mostly clear 10 - - - -
29/01:30pm 26.5 ESE 16 24 1013.7 - 0.0 - Mostly clear 10 - - - -
29/01:00pm 26.8 E 14 22 1013.9 - 0.0 - Mostly clear 10 - - - -
29/12:30pm 26.5 ESE 15 22 1014.0 - 0.0 - Mostly clear 10 - - - -
29/12:00pm 26.6 ESE 14 21 1014.3 R 0.0 Haze Mostly clear 14 - - - -
29/11:30am 26.9 ESE 13 19 1014.5 - 0.0 - Mostly clear 10 - - - -
29/11:00am 26.2 ESE 14 21 1014.6 - 0.0 - Mostly clear 10 - - - -
29/10:30am 26.7 ESE 12 18 1014.7 - 0.0 - Mostly clear 10 - - - -
29/10:00am 26.9 E 10 17 1014.8 - 0.0 - Mostly clear 10 - - - -
29/09:30am 26.9 ESE 10 15 1014.8 - 0.0 - Mostly clear 10 - - - -
29/09:00am 26.7 ESE 8 13 1014.8 R 0.0 Haze Mostly clear 14 - - - -
29/08:30am 26.1 SE 8 14 1014.6 - 0.0 - - 10 - - - -
29/08:00am 25.2 SE 6 9 1014.5 - 0.0 - Mostly clear 10 - - - -
29/07:30am 24.3 S 6 8 1014.2 - 0.0 - - 10 - - - -
29/07:00am 22.7 S 6 7 1014.0 - 0.0 - - 10 - - - -

Other Formats:

Comma delimited format used in spreadsheet applications
http://www.bom.gov.au/fwo/IDQ60701/IDQ60701.94578.axf

JavaScript Object Notation format (JSON) in row-major order
http://www.bom.gov.au/fwo/IDQ60701/IDQ60701.94578.json